sensor_id;sensor_type;location;lat;lon;timestamp;pressure;altitude;pressure_sealevel;temperature;humidity
37200;BME280;23096;50.892;16.746;2022-09-29T00:00:49;97814.80;;;7.81;73.19
37200;BME280;23096;50.892;16.746;2022-09-29T00:03:26;97824.03;;;7.75;73.18
37200;BME280;23096;50.892;16.746;2022-09-29T00:06:00;97824.73;;;7.68;73.21
37200;BME280;23096;50.892;16.746;2022-09-29T00:08:27;97818.78;;;7.68;73.22
37200;BME280;23096;50.892;16.746;2022-09-29T00:11:05;97822.74;;;7.65;73.27
37200;BME280;23096;50.892;16.746;2022-09-29T00:13:30;97817.95;;;7.67;73.35
37200;BME280;23096;50.892;16.746;2022-09-29T00:16:01;97820.88;;;7.68;73.43
37200;BME280;23096;50.892;16.746;2022-09-29T00:18:37;97819.88;;;7.73;73.48
37200;BME280;23096;50.892;16.746;2022-09-29T00:21:13;97825.00;;;7.73;73.37
37200;BME280;23096;50.892;16.746;2022-09-29T00:23:46;97819.30;;;7.76;73.50
37200;BME280;23096;50.892;16.746;2022-09-29T00:26:19;97819.53;;;7.80;73.48
37200;BME280;23096;50.892;16.746;2022-09-29T00:28:51;97814.16;;;7.76;73.30
37200;BME280;23096;50.892;16.746;2022-09-29T00:31:22;97818.38;;;7.77;73.35
37200;BME280;23096;50.892;16.746;2022-09-29T00:36:42;97815.11;;;7.74;73.22
37200;BME280;23096;50.892;16.746;2022-09-29T00:39:13;97812.37;;;7.68;73.20
37200;BME280;23096;50.892;16.746;2022-09-29T00:41:48;97809.56;;;7.64;73.18
37200;BME280;23096;50.892;16.746;2022-09-29T00:47:03;97811.60;;;7.56;73.21
37200;BME280;23096;50.892;16.746;2022-09-29T00:52:44;97810.84;;;7.54;73.25
37200;BME280;23096;50.892;16.746;2022-09-29T00:55:41;97815.08;;;7.55;73.26
37200;BME280;23096;50.892;16.746;2022-09-29T00:58:34;97821.85;;;7.56;73.33
37200;BME280;23096;50.892;16.746;2022-09-29T01:01:16;97827.69;;;7.59;73.42
37200;BME280;23096;50.892;16.746;2022-09-29T01:03:45;97830.13;;;7.62;73.47
37200;BME280;23096;50.892;16.746;2022-09-29T01:06:26;97822.38;;;7.64;73.46
37200;BME280;23096;50.892;16.746;2022-09-29T01:08:58;97831.99;;;7.69;73.48
37200;BME280;23096;50.892;16.746;2022-09-29T01:11:28;97824.15;;;7.72;73.43
37200;BME280;23096;50.892;16.746;2022-09-29T01:14:05;97831.35;;;7.74;73.47
37200;BME280;23096;50.892;16.746;2022-09-29T01:16:49;97832.55;;;7.76;73.45
37200;BME280;23096;50.892;16.746;2022-09-29T01:22:20;97831.96;;;7.79;73.46
37200;BME280;23096;50.892;16.746;2022-09-29T01:37:13;97848.27;;;7.78;73.42
37200;BME280;23096;50.892;16.746;2022-09-29T01:40:01;97858.40;;;7.81;73.37
37200;BME280;23096;50.892;16.746;2022-09-29T01:43:07;97851.19;;;7.79;73.24
37200;BME280;23096;50.892;16.746;2022-09-29T01:52:02;97859.30;;;7.60;73.16
37200;BME280;23096;50.892;16.746;2022-09-29T01:54:43;97856.92;;;7.55;73.16
37200;BME280;23096;50.892;16.746;2022-09-29T02:00:09;97860.44;;;7.42;73.17
37200;BME280;23096;50.892;16.746;2022-09-29T02:02:49;97865.16;;;7.41;73.23
37200;BME280;23096;50.892;16.746;2022-09-29T02:11:25;97864.60;;;7.35;73.16
37200;BME280;23096;50.892;16.746;2022-09-29T02:17:17;97864.66;;;7.33;73.36
37200;BME280;23096;50.892;16.746;2022-09-29T02:29:24;97865.88;;;7.45;73.51
37200;BME280;23096;50.892;16.746;2022-09-29T02:31:37;97864.41;;;7.49;73.58
37200;BME280;23096;50.892;16.746;2022-09-29T02:34:27;97868.97;;;7.53;73.54
37200;BME280;23096;50.892;16.746;2022-09-29T02:43:27;97854.87;;;7.53;73.54
37200;BME280;23096;50.892;16.746;2022-09-29T02:58:20;97853.77;;;7.48;73.50
37200;BME280;23096;50.892;16.746;2022-09-29T03:01:09;97857.19;;;7.49;73.56
37200;BME280;23096;50.892;16.746;2022-09-29T03:03:45;97863.65;;;7.47;73.53
37200;BME280;23096;50.892;16.746;2022-09-29T03:09:22;97864.41;;;7.49;73.60
37200;BME280;23096;50.892;16.746;2022-09-29T03:11:53;97862.55;;;7.53;73.63
37200;BME280;23096;50.892;16.746;2022-09-29T03:14:24;97864.15;;;7.56;73.68
37200;BME280;23096;50.892;16.746;2022-09-29T03:16:58;97864.48;;;7.58;73.67
37200;BME280;23096;50.892;16.746;2022-09-29T03:22:24;97863.52;;;7.61;73.63
37200;BME280;23096;50.892;16.746;2022-09-29T03:27:33;97861.41;;;7.60;73.63
37200;BME280;23096;50.892;16.746;2022-09-29T03:30:17;97861.34;;;7.62;73.68
37200;BME280;23096;50.892;16.746;2022-09-29T03:35:37;97871.08;;;7.64;73.71
37200;BME280;23096;50.892;16.746;2022-09-29T03:38:38;97869.75;;;7.65;73.75
37200;BME280;23096;50.892;16.746;2022-09-29T03:41:21;97879.79;;;7.70;73.75
37200;BME280;23096;50.892;16.746;2022-09-29T03:44:03;97878.08;;;7.71;73.71
37200;BME280;23096;50.892;16.746;2022-09-29T03:49:28;97883.12;;;7.72;73.67
37200;BME280;23096;50.892;16.746;2022-09-29T03:54:46;97883.58;;;7.72;73.63
37200;BME280;23096;50.892;16.746;2022-09-29T03:57:25;97874.23;;;7.71;73.65
37200;BME280;23096;50.892;16.746;2022-09-29T04:00:30;97873.02;;;7.69;73.64
37200;BME280;23096;50.892;16.746;2022-09-29T04:03:23;97879.03;;;7.68;73.62
37200;BME280;23096;50.892;16.746;2022-09-29T04:06:03;97874.35;;;7.67;73.69
37200;BME280;23096;50.892;16.746;2022-09-29T04:08:47;97876.92;;;7.67;73.71
37200;BME280;23096;50.892;16.746;2022-09-29T04:11:37;97887.05;;;7.71;73.77
37200;BME280;23096;50.892;16.746;2022-09-29T04:14:30;97890.81;;;7.72;73.82
37200;BME280;23096;50.892;16.746;2022-09-29T04:16:59;97892.80;;;7.76;73.84
37200;BME280;23096;50.892;16.746;2022-09-29T04:19:32;97893.26;;;7.75;73.81
37200;BME280;23096;50.892;16.746;2022-09-29T04:22:38;97890.33;;;7.74;73.75
37200;BME280;23096;50.892;16.746;2022-09-29T04:25:23;97893.01;;;7.71;73.64
37200;BME280;23096;50.892;16.746;2022-09-29T04:28:18;97891.34;;;7.60;73.48
37200;BME280;23096;50.892;16.746;2022-09-29T04:30:58;97885.44;;;7.47;73.51
37200;BME280;23096;50.892;16.746;2022-09-29T04:33:29;97888.88;;;7.46;73.63
37200;BME280;23096;50.892;16.746;2022-09-29T04:36:52;97896.05;;;7.48;73.77
37200;BME280;23096;50.892;16.746;2022-09-29T04:42:07;97908.02;;;7.38;73.27
37200;BME280;23096;50.892;16.746;2022-09-29T04:45:17;97908.08;;;7.26;73.42
37200;BME280;23096;50.892;16.746;2022-09-29T04:48:23;97910.18;;;7.16;73.39
37200;BME280;23096;50.892;16.746;2022-09-29T04:50:51;97913.92;;;7.07;73.29
37200;BME280;23096;50.892;16.746;2022-09-29T04:53:19;97914.55;;;7.02;73.42
37200;BME280;23096;50.892;16.746;2022-09-29T04:55:48;97909.22;;;6.97;73.38
37200;BME280;23096;50.892;16.746;2022-09-29T04:58:16;97915.27;;;6.94;73.46
37200;BME280;23096;50.892;16.746;2022-09-29T05:00:44;97910.50;;;6.85;73.31
37200;BME280;23096;50.892;16.746;2022-09-29T05:03:10;97910.23;;;6.81;73.45
37200;BME280;23096;50.892;16.746;2022-09-29T05:05:36;97907.68;;;6.81;73.58
37200;BME280;23096;50.892;16.746;2022-09-29T05:08:03;97911.73;;;6.86;73.67
37200;BME280;23096;50.892;16.746;2022-09-29T05:10:29;97911.73;;;6.86;73.65
37200;BME280;23096;50.892;16.746;2022-09-29T05:12:55;97912.95;;;6.88;73.68
37200;BME280;23096;50.892;16.746;2022-09-29T05:15:22;97911.27;;;6.87;73.59
37200;BME280;23096;50.892;16.746;2022-09-29T05:17:48;97907.89;;;6.86;73.65
37200;BME280;23096;50.892;16.746;2022-09-29T05:20:14;97914.64;;;6.89;73.68
37200;BME280;23096;50.892;16.746;2022-09-29T05:22:42;97914.55;;;6.90;73.75
37200;BME280;23096;50.892;16.746;2022-09-29T05:25:09;97912.34;;;6.93;73.81
37200;BME280;23096;50.892;16.746;2022-09-29T05:27:35;97916.07;;;6.96;73.82
37200;BME280;23096;50.892;16.746;2022-09-29T05:30:02;97917.27;;;6.98;73.83
37200;BME280;23096;50.892;16.746;2022-09-29T05:32:28;97920.69;;;6.98;73.80
37200;BME280;23096;50.892;16.746;2022-09-29T05:34:55;97918.07;;;7.00;73.83
37200;BME280;23096;50.892;16.746;2022-09-29T05:37:22;97929.51;;;7.01;73.85
37200;BME280;23096;50.892;16.746;2022-09-29T05:39:48;97922.69;;;7.02;73.87
37200;BME280;23096;50.892;16.746;2022-09-29T05:42:14;97921.72;;;7.04;73.89
37200;BME280;23096;50.892;16.746;2022-09-29T05:44:41;97927.16;;;7.07;73.97
37200;BME280;23096;50.892;16.746;2022-09-29T05:47:06;97933.80;;;7.13;74.04
37200;BME280;23096;50.892;16.746;2022-09-29T05:49:33;97934.83;;;7.19;74.09
37200;BME280;23096;50.892;16.746;2022-09-29T05:52:00;97932.58;;;7.21;74.04
37200;BME280;23096;50.892;16.746;2022-09-29T05:54:26;97940.92;;;7.26;74.04
37200;BME280;23096;50.892;16.746;2022-09-29T05:56:53;97945.94;;;7.29;74.10
37200;BME280;23096;50.892;16.746;2022-09-29T05:59:20;97951.89;;;7.30;73.92
37200;BME280;23096;50.892;16.746;2022-09-29T06:01:48;97946.97;;;7.14;73.81
37200;BME280;23096;50.892;16.746;2022-09-29T06:04:14;97953.02;;;7.13;73.89
37200;BME280;23096;50.892;16.746;2022-09-29T06:06:42;97956.85;;;7.13;73.96
37200;BME280;23096;50.892;16.746;2022-09-29T06:09:08;97952.09;;;7.14;74.04
37200;BME280;23096;50.892;16.746;2022-09-29T06:11:34;97961.78;;;7.17;74.14
37200;BME280;23096;50.892;16.746;2022-09-29T06:14:00;97963.78;;;7.21;74.08
37200;BME280;23096;50.892;16.746;2022-09-29T06:16:28;97954.16;;;7.16;74.06
37200;BME280;23096;50.892;16.746;2022-09-29T06:18:55;97966.13;;;7.15;74.06
37200;BME280;23096;50.892;16.746;2022-09-29T06:21:24;97967.30;;;7.18;74.16
37200;BME280;23096;50.892;16.746;2022-09-29T06:23:53;97972.43;;;7.18;74.15
37200;BME280;23096;50.892;16.746;2022-09-29T06:26:20;97973.01;;;7.25;74.30
37200;BME280;23096;50.892;16.746;2022-09-29T06:28:47;97972.33;;;7.32;74.43
37200;BME280;23096;50.892;16.746;2022-09-29T06:31:14;97977.16;;;7.39;74.44
37200;BME280;23096;50.892;16.746;2022-09-29T06:33:41;97979.75;;;7.49;74.57
37200;BME280;23096;50.892;16.746;2022-09-29T06:36:14;97980.67;;;7.59;74.54
37200;BME280;23096;50.892;16.746;2022-09-29T06:39:02;97980.30;;;7.68;74.60
37200;BME280;23096;50.892;16.746;2022-09-29T06:41:29;97977.41;;;7.76;74.60
37200;BME280;23096;50.892;16.746;2022-09-29T06:43:55;97985.25;;;7.83;74.64
37200;BME280;23096;50.892;16.746;2022-09-29T06:46:22;97981.11;;;7.91;74.67
37200;BME280;23096;50.892;16.746;2022-09-29T06:48:48;97990.98;;;8.00;74.75
37200;BME280;23096;50.892;16.746;2022-09-29T06:51:14;97985.08;;;8.08;74.85
37200;BME280;23096;50.892;16.746;2022-09-29T06:53:40;97982.12;;;8.17;74.86
37200;BME280;23096;50.892;16.746;2022-09-29T06:56:06;97980.84;;;8.28;74.93
37200;BME280;23096;50.892;16.746;2022-09-29T06:58:35;97983.02;;;8.37;74.95
37200;BME280;23096;50.892;16.746;2022-09-29T07:01:02;97987.35;;;8.47;75.01
37200;BME280;23096;50.892;16.746;2022-09-29T07:03:30;97993.27;;;8.57;75.06
37200;BME280;23096;50.892;16.746;2022-09-29T07:06:00;97990.17;;;8.70;75.14
37200;BME280;23096;50.892;16.746;2022-09-29T07:08:32;97987.95;;;8.81;75.17
37200;BME280;23096;50.892;16.746;2022-09-29T07:11:00;97982.21;;;8.95;75.25
37200;BME280;23096;50.892;16.746;2022-09-29T07:13:27;97991.11;;;9.07;75.23
37200;BME280;23096;50.892;16.746;2022-09-29T07:15:54;97989.24;;;9.19;75.26
37200;BME280;23096;50.892;16.746;2022-09-29T07:18:20;97996.86;;;9.31;75.20
37200;BME280;23096;50.892;16.746;2022-09-29T07:20:46;97998.09;;;9.41;75.19
37200;BME280;23096;50.892;16.746;2022-09-29T07:23:12;97995.09;;;9.50;75.12
37200;BME280;23096;50.892;16.746;2022-09-29T07:25:38;97993.83;;;9.59;75.07
37200;BME280;23096;50.892;16.746;2022-09-29T07:28:04;97998.53;;;9.68;75.02
37200;BME280;23096;50.892;16.746;2022-09-29T07:30:38;97996.48;;;9.75;74.84
37200;BME280;23096;50.892;16.746;2022-09-29T07:33:37;97997.91;;;9.81;74.73
37200;BME280;23096;50.892;16.746;2022-09-29T07:36:18;97994.14;;;9.88;74.57
37200;BME280;23096;50.892;16.746;2022-09-29T07:41:37;98003.61;;;9.96;74.30
37200;BME280;23096;50.892;16.746;2022-09-29T07:44:21;98002.94;;;10.01;74.20
37200;BME280;23096;50.892;16.746;2022-09-29T07:49:25;98005.66;;;10.07;73.95
37200;BME280;23096;50.892;16.746;2022-09-29T07:51:59;98010.13;;;10.12;73.88
37200;BME280;23096;50.892;16.746;2022-09-29T07:54:31;98010.28;;;10.17;73.72
37200;BME280;23096;50.892;16.746;2022-09-29T07:57:03;98013.61;;;10.20;73.53
37200;BME280;23096;50.892;16.746;2022-09-29T07:59:30;98005.63;;;10.24;73.41
37200;BME280;23096;50.892;16.746;2022-09-29T08:01:57;98002.09;;;10.27;73.28
37200;BME280;23096;50.892;16.746;2022-09-29T08:04:27;98010.38;;;10.33;73.19
37200;BME280;23096;50.892;16.746;2022-09-29T08:06:53;98006.59;;;10.41;73.09
37200;BME280;23096;50.892;16.746;2022-09-29T08:09:19;98011.80;;;10.48;73.05
37200;BME280;23096;50.892;16.746;2022-09-29T08:11:45;98014.52;;;10.53;72.94
37200;BME280;23096;50.892;16.746;2022-09-29T08:14:11;98012.01;;;10.61;72.89
37200;BME280;23096;50.892;16.746;2022-09-29T08:16:37;98015.16;;;10.66;72.78
37200;BME280;23096;50.892;16.746;2022-09-29T08:19:03;98020.00;;;10.72;72.72
37200;BME280;23096;50.892;16.746;2022-09-29T08:21:30;98020.22;;;10.76;72.61
37200;BME280;23096;50.892;16.746;2022-09-29T08:23:59;98019.98;;;10.81;72.57
37200;BME280;23096;50.892;16.746;2022-09-29T08:26:31;98023.52;;;10.87;72.48
37200;BME280;23096;50.892;16.746;2022-09-29T08:29:02;98016.08;;;10.89;72.39
37200;BME280;23096;50.892;16.746;2022-09-29T08:31:30;98018.50;;;10.92;72.34
37200;BME280;23096;50.892;16.746;2022-09-29T08:33:57;98024.64;;;10.99;72.31
37200;BME280;23096;50.892;16.746;2022-09-29T08:36:23;98030.00;;;11.03;72.20
37200;BME280;23096;50.892;16.746;2022-09-29T08:38:54;98032.58;;;11.03;72.01
37200;BME280;23096;50.892;16.746;2022-09-29T08:44:11;98033.66;;;10.99;71.72
37200;BME280;23096;50.892;16.746;2022-09-29T08:46:49;98043.42;;;11.01;71.58
37200;BME280;23096;50.892;16.746;2022-09-29T08:49:36;98043.42;;;11.01;71.42
37200;BME280;23096;50.892;16.746;2022-09-29T08:52:11;98040.10;;;10.99;71.26
37200;BME280;23096;50.892;16.746;2022-09-29T08:54:41;98043.66;;;10.96;71.15
37200;BME280;23096;50.892;16.746;2022-09-29T08:57:11;98040.33;;;10.94;71.06
37200;BME280;23096;50.892;16.746;2022-09-29T08:59:58;98046.92;;;10.91;71.00
37200;BME280;23096;50.892;16.746;2022-09-29T09:06:13;98050.04;;;10.89;70.92
37200;BME280;23096;50.892;16.746;2022-09-29T09:08:12;98057.48;;;10.86;70.86
37200;BME280;23096;50.892;16.746;2022-09-29T09:10:52;98061.35;;;10.86;70.83
37200;BME280;23096;50.892;16.746;2022-09-29T09:13:31;98059.20;;;10.86;70.78
37200;BME280;23096;50.892;16.746;2022-09-29T09:18:40;98063.25;;;10.83;70.70
37200;BME280;23096;50.892;16.746;2022-09-29T09:21:32;98060.21;;;10.83;70.69
37200;BME280;23096;50.892;16.746;2022-09-29T09:24:16;98058.70;;;10.88;70.74
37200;BME280;23096;50.892;16.746;2022-09-29T09:26:55;98061.95;;;10.91;70.73
37200;BME280;23096;50.892;16.746;2022-09-29T09:29:28;98061.62;;;10.98;70.74
37200;BME280;23096;50.892;16.746;2022-09-29T09:32:03;98069.12;;;11.02;70.76
37200;BME280;23096;50.892;16.746;2022-09-29T09:34:37;98073.48;;;11.09;70.76
37200;BME280;23096;50.892;16.746;2022-09-29T09:37:07;98070.05;;;11.17;70.74
37200;BME280;23096;50.892;16.746;2022-09-29T09:42:20;98071.11;;;11.38;70.80
37200;BME280;23096;50.892;16.746;2022-09-29T09:44:53;98076.12;;;11.57;70.84
37200;BME280;23096;50.892;16.746;2022-09-29T09:47:31;98066.31;;;11.70;70.72
37200;BME280;23096;50.892;16.746;2022-09-29T09:50:21;98073.84;;;11.82;70.55
37200;BME280;23096;50.892;16.746;2022-09-29T09:52:50;98078.61;;;11.90;70.35
37200;BME280;23096;50.892;16.746;2022-09-29T09:55:20;98073.83;;;11.98;70.33
37200;BME280;23096;50.892;16.746;2022-09-29T10:00:57;98072.46;;;12.00;69.89
37200;BME280;23096;50.892;16.746;2022-09-29T10:03:26;98074.52;;;12.09;69.90
37200;BME280;23096;50.892;16.746;2022-09-29T10:05:52;98070.32;;;12.15;69.78
37200;BME280;23096;50.892;16.746;2022-09-29T10:10:54;98071.82;;;12.26;69.55
37200;BME280;23096;50.892;16.746;2022-09-29T10:13:21;98066.77;;;12.32;69.37
37200;BME280;23096;50.892;16.746;2022-09-29T10:15:52;98066.30;;;12.33;69.24
37200;BME280;23096;50.892;16.746;2022-09-29T10:18:44;98061.89;;;12.35;69.13
37200;BME280;23096;50.892;16.746;2022-09-29T10:21:19;98073.95;;;12.34;68.97
37200;BME280;23096;50.892;16.746;2022-09-29T10:23:55;98073.30;;;12.31;68.80
37200;BME280;23096;50.892;16.746;2022-09-29T10:26:25;98069.83;;;12.39;68.91
37200;BME280;23096;50.892;16.746;2022-09-29T10:29:16;98072.60;;;12.43;68.71
37200;BME280;23096;50.892;16.746;2022-09-29T10:32:03;98071.78;;;12.42;68.44
37200;BME280;23096;50.892;16.746;2022-09-29T10:34:29;98079.24;;;12.47;68.43
37200;BME280;23096;50.892;16.746;2022-09-29T10:37:04;98079.36;;;12.60;68.36
37200;BME280;23096;50.892;16.746;2022-09-29T10:39:36;98086.30;;;12.66;68.18
37200;BME280;23096;50.892;16.746;2022-09-29T10:42:23;98082.98;;;12.64;67.88
37200;BME280;23096;50.892;16.746;2022-09-29T10:45:12;98080.78;;;12.65;67.75
37200;BME280;23096;50.892;16.746;2022-09-29T10:52:56;98080.15;;;12.76;67.32
37200;BME280;23096;50.892;16.746;2022-09-29T10:55:25;98080.68;;;12.81;67.29
37200;BME280;23096;50.892;16.746;2022-09-29T10:57:55;98078.40;;;12.91;67.24
37200;BME280;23096;50.892;16.746;2022-09-29T11:05:52;98083.75;;;13.17;67.09
37200;BME280;23096;50.892;16.746;2022-09-29T11:08:30;98090.77;;;13.22;67.01
37200;BME280;23096;50.892;16.746;2022-09-29T11:11:06;98094.56;;;13.23;66.85
37200;BME280;23096;50.892;16.746;2022-09-29T11:13:49;98100.64;;;13.22;66.78
37200;BME280;23096;50.892;16.746;2022-09-29T11:16:22;98105.73;;;13.17;66.62
37200;BME280;23096;50.892;16.746;2022-09-29T11:19:01;98102.32;;;13.09;66.49
37200;BME280;23096;50.892;16.746;2022-09-29T11:24:13;98106.37;;;12.99;66.49
37200;BME280;23096;50.892;16.746;2022-09-29T11:29:18;98104.44;;;13.02;66.40
37200;BME280;23096;50.892;16.746;2022-09-29T11:37:33;98102.96;;;12.98;66.16
37200;BME280;23096;50.892;16.746;2022-09-29T11:40:15;98102.23;;;12.96;66.10
37200;BME280;23096;50.892;16.746;2022-09-29T11:45:23;98101.57;;;12.85;65.98
37200;BME280;23096;50.892;16.746;2022-09-29T12:04:49;98095.45;;;12.79;65.73
37200;BME280;23096;50.892;16.746;2022-09-29T12:07:52;98093.61;;;12.81;65.71
37200;BME280;23096;50.892;16.746;2022-09-29T12:10:41;98094.55;;;12.80;65.64
37200;BME280;23096;50.892;16.746;2022-09-29T12:13:19;98094.63;;;12.79;65.60
37200;BME280;23096;50.892;16.746;2022-09-29T12:16:03;98100.92;;;12.82;65.59
37200;BME280;23096;50.892;16.746;2022-09-29T12:21:32;98101.66;;;12.84;65.51
37200;BME280;23096;50.892;16.746;2022-09-29T12:24:06;98095.66;;;12.83;65.50
37200;BME280;23096;50.892;16.746;2022-09-29T12:26:44;98100.45;;;12.82;65.44
37200;BME280;23096;50.892;16.746;2022-09-29T12:32:09;98096.02;;;12.84;65.49
37200;BME280;23096;50.892;16.746;2022-09-29T12:34:35;98098.13;;;12.85;65.44
37200;BME280;23096;50.892;16.746;2022-09-29T12:37:20;98100.83;;;12.83;65.35
37200;BME280;23096;50.892;16.746;2022-09-29T12:42:37;98105.45;;;12.85;65.24
37200;BME280;23096;50.892;16.746;2022-09-29T12:50:24;98101.93;;;12.94;65.26
37200;BME280;23096;50.892;16.746;2022-09-29T12:52:53;98102.31;;;13.02;65.27
37200;BME280;23096;50.892;16.746;2022-09-29T12:58:30;98107.11;;;13.22;65.27
37200;BME280;23096;50.892;16.746;2022-09-29T13:01:27;98108.78;;;13.23;65.09
37200;BME280;23096;50.892;16.746;2022-09-29T13:07:46;98106.84;;;13.27;64.95
37200;BME280;23096;50.892;16.746;2022-09-29T13:12:42;98115.12;;;13.25;64.48
37200;BME280;23096;50.892;16.746;2022-09-29T13:26:39;98112.22;;;13.38;64.52
37200;BME280;23096;50.892;16.746;2022-09-29T13:29:04;98109.88;;;13.48;64.46
37200;BME280;23096;50.892;16.746;2022-09-29T13:31:38;98107.59;;;13.51;64.30
37200;BME280;23096;50.892;16.746;2022-09-29T13:34:15;98105.81;;;13.58;64.13
37200;BME280;23096;50.892;16.746;2022-09-29T13:36:38;98100.81;;;13.55;63.88
37200;BME280;23096;50.892;16.746;2022-09-29T13:39:07;98107.75;;;13.62;63.83
37200;BME280;23096;50.892;16.746;2022-09-29T13:41:54;98105.98;;;13.63;63.49
37200;BME280;23096;50.892;16.746;2022-09-29T13:44:25;98110.05;;;13.59;63.43
37200;BME280;23096;50.892;16.746;2022-09-29T13:46:52;98107.75;;;13.62;63.38
37200;BME280;23096;50.892;16.746;2022-09-29T13:54:29;98112.03;;;13.76;63.33
37200;BME280;23096;50.892;16.746;2022-09-29T13:57:06;98113.63;;;13.78;63.25
37200;BME280;23096;50.892;16.746;2022-09-29T14:10:47;98130.95;;;13.64;62.51
37200;BME280;23096;50.892;16.746;2022-09-29T14:13:26;98138.43;;;13.54;62.41
37200;BME280;23096;50.892;16.746;2022-09-29T14:21:01;98140.81;;;13.14;62.27
37200;BME280;23096;50.892;16.746;2022-09-29T14:29:18;98148.84;;;12.88;62.81
37200;BME280;23096;50.892;16.746;2022-09-29T14:31:52;98149.95;;;12.83;62.84
37200;BME280;23096;50.892;16.746;2022-09-29T14:34:28;98145.03;;;12.79;63.01
37200;BME280;23096;50.892;16.746;2022-09-29T14:36:56;98143.55;;;12.75;63.17
37200;BME280;23096;50.892;16.746;2022-09-29T14:39:25;98145.94;;;12.78;63.42
37200;BME280;23096;50.892;16.746;2022-09-29T14:41:52;98145.52;;;12.85;63.66
37200;BME280;23096;50.892;16.746;2022-09-29T14:44:24;98146.44;;;12.92;63.72
37200;BME280;23096;50.892;16.746;2022-09-29T14:46:59;98149.94;;;12.98;63.86
37200;BME280;23096;50.892;16.746;2022-09-29T14:55:40;98150.89;;;13.04;63.98
37200;BME280;23096;50.892;16.746;2022-09-29T14:58:35;98147.38;;;13.12;64.25
37200;BME280;23096;50.892;16.746;2022-09-29T15:01:15;98149.31;;;13.23;64.48
37200;BME280;23096;50.892;16.746;2022-09-29T15:03:43;98147.79;;;13.35;64.64
37200;BME280;23096;50.892;16.746;2022-09-29T15:06:13;98144.17;;;13.45;64.71
37200;BME280;23096;50.892;16.746;2022-09-29T15:08:40;98149.34;;;13.52;64.66
37200;BME280;23096;50.892;16.746;2022-09-29T15:15:26;98162.02;;;13.49;64.57
37200;BME280;23096;50.892;16.746;2022-09-29T15:16:49;98162.58;;;13.40;64.56
37200;BME280;23096;50.892;16.746;2022-09-29T15:22:19;98164.83;;;13.16;64.43
37200;BME280;23096;50.892;16.746;2022-09-29T15:24:56;98164.63;;;12.97;64.47
37200;BME280;23096;50.892;16.746;2022-09-29T15:27:25;98171.53;;;12.82;64.50
37200;BME280;23096;50.892;16.746;2022-09-29T15:29:55;98172.02;;;12.59;64.22
37200;BME280;23096;50.892;16.746;2022-09-29T15:32:21;98167.16;;;12.38;64.45
37200;BME280;23096;50.892;16.746;2022-09-29T15:34:49;98176.14;;;12.24;64.53
37200;BME280;23096;50.892;16.746;2022-09-29T15:37:16;98171.97;;;12.05;64.49
37200;BME280;23096;50.892;16.746;2022-09-29T15:39:48;98175.68;;;11.93;64.69
37200;BME280;23096;50.892;16.746;2022-09-29T15:42:20;98179.07;;;11.77;64.64
37200;BME280;23096;50.892;16.746;2022-09-29T15:45:00;98182.77;;;11.64;64.85
37200;BME280;23096;50.892;16.746;2022-09-29T15:47:28;98182.33;;;11.56;64.87
37200;BME280;23096;50.892;16.746;2022-09-29T15:49:57;98187.01;;;11.41;64.92
37200;BME280;23096;50.892;16.746;2022-09-29T15:52:23;98188.10;;;11.28;65.01
37200;BME280;23096;50.892;16.746;2022-09-29T15:54:53;98189.48;;;11.18;65.12
37200;BME280;23096;50.892;16.746;2022-09-29T15:57:28;98182.67;;;11.08;65.29
37200;BME280;23096;50.892;16.746;2022-09-29T16:03:03;98195.71;;;11.05;65.47
37200;BME280;23096;50.892;16.746;2022-09-29T16:05:51;98202.69;;;10.94;65.57
37200;BME280;23096;50.892;16.746;2022-09-29T16:08:24;98209.66;;;10.83;65.64
37200;BME280;23096;50.892;16.746;2022-09-29T16:10:59;98208.83;;;10.74;65.71
37200;BME280;23096;50.892;16.746;2022-09-29T16:13:25;98214.04;;;10.64;65.72
37200;BME280;23096;50.892;16.746;2022-09-29T16:16:00;98220.10;;;10.54;65.78
37200;BME280;23096;50.892;16.746;2022-09-29T16:18:36;98228.20;;;10.46;66.00
37200;BME280;23096;50.892;16.746;2022-09-29T16:21:06;98235.92;;;10.46;66.17
37200;BME280;23096;50.892;16.746;2022-09-29T16:23:44;98236.36;;;10.46;66.21
37200;BME280;23096;50.892;16.746;2022-09-29T16:31:39;98249.50;;;10.12;66.24
37200;BME280;23096;50.892;16.746;2022-09-29T16:34:24;98255.50;;;10.02;66.29
37200;BME280;23096;50.892;16.746;2022-09-29T16:36:56;98257.97;;;9.95;66.50
37200;BME280;23096;50.892;16.746;2022-09-29T16:39:22;98251.12;;;9.85;66.58
37200;BME280;23096;50.892;16.746;2022-09-29T16:41:55;98248.90;;;9.77;66.61
37200;BME280;23096;50.892;16.746;2022-09-29T16:44:22;98257.39;;;9.69;66.68
37200;BME280;23096;50.892;16.746;2022-09-29T16:46:56;98260.06;;;9.57;66.71
37200;BME280;23096;50.892;16.746;2022-09-29T16:49:31;98270.87;;;9.45;66.82
37200;BME280;23096;50.892;16.746;2022-09-29T16:54:54;98277.69;;;9.26;66.96
37200;BME280;23096;50.892;16.746;2022-09-29T16:57:38;98279.41;;;9.15;67.24
37200;BME280;23096;50.892;16.746;2022-09-29T17:00:22;98282.09;;;9.12;67.40
37200;BME280;23096;50.892;16.746;2022-09-29T17:02:51;98282.09;;;9.12;67.62
37200;BME280;23096;50.892;16.746;2022-09-29T17:05:18;98279.35;;;9.16;67.77
37200;BME280;23096;50.892;16.746;2022-09-29T17:07:46;98279.60;;;9.20;67.84
37200;BME280;23096;50.892;16.746;2022-09-29T17:10:16;98286.18;;;9.17;67.81
37200;BME280;23096;50.892;16.746;2022-09-29T17:12:46;98290.61;;;9.14;67.90
37200;BME280;23096;50.892;16.746;2022-09-29T17:15:12;98291.09;;;9.12;68.00
37200;BME280;23096;50.892;16.746;2022-09-29T17:17:39;98292.07;;;9.09;68.10
37200;BME280;23096;50.892;16.746;2022-09-29T17:20:13;98292.52;;;9.09;68.23
37200;BME280;23096;50.892;16.746;2022-09-29T17:22:42;98294.64;;;9.09;68.34
37200;BME280;23096;50.892;16.746;2022-09-29T17:25:13;98298.03;;;9.10;68.44
37200;BME280;23096;50.892;16.746;2022-09-29T17:27:39;98305.31;;;9.10;68.55